Time;durP1;ratioP1;P1;durP2;ratioP2;P2;SDS_P1;SDS_P2;PMS_P1;PMS_P2;Temp;Humidity;BMP_temperature;BMP_pressure;BME280_temperature;BME280_humidity;BME280_pressure;Samples;Min_cycle;Max_cycle;Signal;HPM_P1;HPM_P2
2021/12/20 00:00:38;;;;;;;29.80;5.70;;;6.80;99.90;;;;;;4970113;28;20064;-94
2021/12/20 00:03:04;;;;;;;24.52;4.95;;;6.80;99.90;;;;;;4982315;28;20498;-94
2021/12/20 00:05:30;;;;;;;26.90;6.22;;;6.80;99.90;;;;;;4967951;28;20509;-93
2021/12/20 00:07:56;;;;;;;24.73;6.18;;;6.80;99.90;;;;;;4969033;28;20042;-94
2021/12/20 00:10:22;;;;;;;24.63;5.72;;;6.80;99.90;;;;;;4968697;28;20518;-94
2021/12/20 00:12:48;;;;;;;19.90;5.00;;;6.80;99.90;;;;;;4969182;28;20762;-94
2021/12/20 00:15:14;;;;;;;31.50;6.00;;;6.80;99.90;;;;;;4965527;28;20046;-94
2021/12/20 00:17:40;;;;;;;27.23;6.25;;;6.80;99.90;;;;;;4965605;28;20042;-94
2021/12/20 00:20:06;;;;;;;23.02;6.05;;;6.80;99.90;;;;;;4990398;28;20502;-94
2021/12/20 00:22:32;;;;;;;22.55;5.20;;;6.70;99.90;;;;;;4965708;28;20039;-95
2021/12/20 00:24:58;;;;;;;25.75;5.53;;;6.70;99.90;;;;;;4967446;28;20034;-94
2021/12/20 00:27:23;;;;;;;26.40;5.20;;;6.70;99.90;;;;;;4968118;28;20045;-95
2021/12/20 00:29:49;;;;;;;24.05;6.07;;;6.70;99.90;;;;;;4966299;28;20519;-94
2021/12/20 00:32:17;;;;;;;26.23;5.35;;;6.70;99.90;;;;;;4966851;28;20054;-94
2021/12/20 00:34:45;;;;;;;21.80;5.07;;;6.70;99.90;;;;;;4963879;28;20431;-94
2021/12/20 00:42:41;;;;;;;23.38;5.45;;;6.70;99.90;;;;;;5003726;28;20422;-93
2021/12/20 00:45:08;;;;;;;25.80;5.80;;;6.70;99.90;;;;;;4976621;28;20045;-94
2021/12/20 00:47:34;;;;;;;28.48;5.47;;;6.70;99.90;;;;;;4987666;28;20030;-94
2021/12/20 00:50:00;;;;;;;23.95;5.18;;;6.70;99.90;;;;;;4972119;28;20041;-94
2021/12/20 00:52:25;;;;;;;24.30;4.88;;;6.60;99.90;;;;;;4966130;28;20077;-94
2021/12/20 00:54:51;;;;;;;26.13;5.78;;;6.60;99.90;;;;;;4961863;28;20069;-93
2021/12/20 00:57:17;;;;;;;28.48;5.80;;;6.60;99.90;;;;;;4966900;28;20030;-94
2021/12/20 00:59:43;;;;;;;23.70;4.95;;;6.70;99.90;;;;;;4981282;28;20066;-94
2021/12/20 01:02:09;;;;;;;23.25;5.00;;;6.70;99.90;;;;;;4965973;28;20050;-93
2021/12/20 01:04:34;;;;;;;22.63;4.78;;;6.70;99.90;;;;;;4980123;28;20119;-93
2021/12/20 01:07:00;;;;;;;24.20;5.03;;;6.60;99.90;;;;;;4968580;28;20100;-95
2021/12/20 01:09:25;;;;;;;25.27;4.85;;;6.60;99.90;;;;;;4979420;28;20129;-95
2021/12/20 01:11:53;;;;;;;20.35;4.93;;;6.60;99.90;;;;;;4981439;28;20042;-95
2021/12/20 01:14:27;;;;;;;26.48;5.35;;;6.60;99.90;;;;;;4958990;28;20133;-93
2021/12/20 01:16:55;;;;;;;25.42;5.13;;;6.60;99.90;;;;;;4964128;28;20042;-93
2021/12/20 01:19:22;;;;;;;27.02;5.85;;;6.60;99.90;;;;;;4964777;28;20491;-94
2021/12/20 01:21:48;;;;;;;24.10;5.18;;;6.50;99.90;;;;;;4976514;28;20045;-94
2021/12/20 01:24:14;;;;;;;24.90;4.80;;;6.60;99.90;;;;;;4969669;28;20562;-94
2021/12/20 01:26:39;;;;;;;23.13;5.20;;;6.50;99.90;;;;;;4969824;28;20523;-94
2021/12/20 01:29:05;;;;;;;22.02;4.63;;;6.50;99.90;;;;;;4989282;28;20469;-95
2021/12/20 01:31:30;;;;;;;25.58;5.60;;;6.50;99.90;;;;;;4965292;28;20042;-94
2021/12/20 01:33:56;;;;;;;23.80;4.75;;;6.50;99.90;;;;;;4971659;28;20088;-94
2021/12/20 01:36:22;;;;;;;26.00;5.60;;;6.50;99.90;;;;;;4977287;28;20441;-94
2021/12/20 01:38:47;;;;;;;25.55;5.32;;;6.40;99.90;;;;;;4977103;28;20107;-94
2021/12/20 01:41:14;;;;;;;20.05;5.15;;;6.50;99.90;;;;;;4969703;28;20085;-95
2021/12/20 01:43:39;;;;;;;19.23;4.72;;;6.40;99.90;;;;;;4969784;28;20089;-94
2021/12/20 01:46:05;;;;;;;27.38;6.07;;;6.50;99.90;;;;;;4985934;28;20129;-94
2021/12/20 01:48:32;;;;;;;25.83;5.45;;;6.40;99.90;;;;;;4987605;28;20072;-94
2021/12/20 01:53:35;;;;;;;29.63;6.00;;;6.40;99.90;;;;;;4986994;28;20088;-94
2021/12/20 01:56:01;;;;;;;28.75;5.80;;;6.40;99.90;;;;;;4970493;28;20057;-94
2021/12/20 01:58:29;;;;;;;26.48;5.32;;;6.40;99.90;;;;;;4985832;28;20185;-95
2021/12/20 02:01:43;;;;;;;23.52;4.60;;;6.30;99.90;;;;;;4972294;28;20046;-94
2021/12/20 02:03:46;;;;;;;24.73;5.63;;;6.30;99.90;;;;;;4985993;28;20052;-94
2021/12/20 02:06:27;;;;;;;23.70;4.65;;;6.30;99.90;;;;;;4972602;28;20039;-93
2021/12/20 02:08:55;;;;;;;22.48;5.07;;;6.30;99.90;;;;;;4967385;28;20054;-93
2021/12/20 02:11:21;;;;;;;24.15;4.40;;;6.30;99.90;;;;;;4988619;28;20109;-94
2021/12/20 02:13:47;;;;;;;21.65;5.30;;;6.30;99.90;;;;;;4972972;28;20080;-94
2021/12/20 02:16:13;;;;;;;21.80;4.50;;;6.30;99.90;;;;;;4970722;28;20479;-94
2021/12/20 02:18:38;;;;;;;23.02;5.30;;;6.30;99.90;;;;;;4978762;28;20050;-94
2021/12/20 02:21:04;;;;;;;26.73;6.15;;;6.30;99.90;;;;;;4968637;28;20444;-94
2021/12/20 02:23:30;;;;;;;27.02;4.82;;;6.30;99.90;;;;;;4990633;28;20042;-94
2021/12/20 02:25:56;;;;;;;23.33;4.60;;;6.30;99.90;;;;;;4968424;28;20126;-93
2021/12/20 02:28:23;;;;;;;21.92;4.65;;;6.30;99.90;;;;;;4969770;28;20045;-93
2021/12/20 02:38:59;;;;;;;20.95;4.00;;;6.30;99.90;;;;;;4981219;28;20693;-93
2021/12/20 02:41:32;;;;;;;19.52;3.88;;;6.20;99.90;;;;;;4973885;28;20060;-93
2021/12/20 02:44:03;;;;;;;19.48;4.60;;;6.20;99.90;;;;;;4966116;28;20121;-94
2021/12/20 02:49:05;;;;;;;19.30;4.30;;;6.20;99.90;;;;;;4985243;28;20408;-93
2021/12/20 02:51:31;;;;;;;19.60;4.00;;;6.10;99.90;;;;;;4967213;28;20042;-94
2021/12/20 02:53:59;;;;;;;19.65;3.85;;;6.10;99.90;;;;;;4983367;28;20038;-94
2021/12/20 02:56:25;;;;;;;18.63;3.75;;;6.00;99.90;;;;;;4972757;28;20105;-94
2021/12/20 02:58:52;;;;;;;19.08;4.10;;;6.00;99.90;;;;;;4986272;28;20398;-94
2021/12/20 03:01:18;;;;;;;17.25;4.15;;;6.00;99.90;;;;;;4973157;28;20407;-93
2021/12/20 03:03:45;;;;;;;19.95;4.15;;;6.00;99.90;;;;;;4969247;28;20045;-93
2021/12/20 03:06:14;;;;;;;18.10;4.35;;;6.00;99.90;;;;;;4961348;28;20109;-94
2021/12/20 03:08:43;;;;;;;17.38;4.18;;;5.90;99.90;;;;;;4968556;28;20068;-93
2021/12/20 03:11:09;;;;;;;16.00;3.78;;;5.90;99.90;;;;;;4969835;28;20117;-94
2021/12/20 03:13:35;;;;;;;19.77;4.40;;;5.90;99.90;;;;;;4978016;28;20113;-93
2021/12/20 03:16:01;;;;;;;21.08;4.07;;;5.90;99.90;;;;;;4969283;28;20039;-94
2021/12/20 03:18:26;;;;;;;14.85;3.88;;;5.80;99.90;;;;;;4982178;28;20399;-93
2021/12/20 03:20:52;;;;;;;14.88;2.95;;;5.80;99.90;;;;;;4972097;28;20038;-94
2021/12/20 03:23:18;;;;;;;18.02;3.95;;;5.80;99.90;;;;;;4967373;28;20060;-94
2021/12/20 03:25:43;;;;;;;15.02;3.28;;;5.70;99.90;;;;;;4967537;28;20046;-93
2021/12/20 03:28:09;;;;;;;23.13;3.40;;;5.70;99.90;;;;;;4967260;28;20501;-94
2021/12/20 03:30:35;;;;;;;15.40;3.20;;;5.70;99.90;;;;;;4984266;28;20388;-94
2021/12/20 03:33:00;;;;;;;20.52;3.78;;;5.60;99.90;;;;;;4973157;28;20034;-94
2021/12/20 03:35:26;;;;;;;17.10;3.58;;;5.60;99.90;;;;;;4982747;28;20407;-94
2021/12/20 03:37:52;;;;;;;18.83;3.65;;;5.50;99.90;;;;;;4974909;28;20038;-94
2021/12/20 03:40:18;;;;;;;22.55;3.45;;;5.50;99.90;;;;;;4969940;28;20093;-94
2021/12/20 03:42:45;;;;;;;21.83;4.30;;;5.40;99.90;;;;;;4968421;28;20042;-93
2021/12/20 03:45:14;;;;;;;15.45;3.53;;;5.40;99.90;;;;;;4964866;28;20060;-94
2021/12/20 03:47:40;;;;;;;18.60;3.40;;;5.30;99.90;;;;;;4982633;28;20046;-93
2021/12/20 03:50:07;;;;;;;15.68;3.20;;;5.30;99.90;;;;;;4962931;28;20046;-94
2021/12/20 03:52:33;;;;;;;13.88;3.08;;;5.20;99.90;;;;;;4979969;28;20034;-94
2021/12/20 03:55:01;;;;;;;14.95;2.88;;;5.20;99.90;;;;;;4983339;28;20045;-95
2021/12/20 03:57:27;;;;;;;13.68;3.05;;;5.10;99.90;;;;;;4960813;28;20513;-94
2021/12/20 03:59:53;;;;;;;13.32;2.90;;;5.00;99.90;;;;;;4989164;28;20058;-94
2021/12/20 04:02:21;;;;;;;14.57;2.50;;;4.90;99.90;;;;;;4977053;28;20447;-95
2021/12/20 04:04:47;;;;;;;16.52;3.42;;;4.90;99.90;;;;;;4967483;28;20061;-94
2021/12/20 04:07:13;;;;;;;16.63;3.00;;;4.90;99.90;;;;;;4972172;28;20046;-94
2021/12/20 04:09:39;;;;;;;16.48;2.97;;;4.80;99.90;;;;;;4966026;28;20050;-94
2021/12/20 04:12:05;;;;;;;15.40;3.33;;;4.80;99.90;;;;;;4964361;28;20038;-94
2021/12/20 04:14:30;;;;;;;16.20;2.80;;;4.70;99.90;;;;;;4965951;28;20054;-93
2021/12/20 04:16:56;;;;;;;15.15;3.35;;;4.70;99.90;;;;;;4960995;28;20045;-93
2021/12/20 04:19:22;;;;;;;19.05;3.58;;;4.70;99.90;;;;;;4983259;28;20045;-94
2021/12/20 04:21:47;;;;;;;14.60;3.58;;;4.60;99.90;;;;;;4964509;28;20073;-94
2021/12/20 04:24:13;;;;;;;15.02;3.55;;;4.60;99.90;;;;;;4968719;28;20046;-94
2021/12/20 04:26:40;;;;;;;15.38;3.65;;;4.60;99.90;;;;;;4983903;28;20106;-94
2021/12/20 04:29:06;;;;;;;13.52;2.90;;;4.50;99.90;;;;;;4968865;28;20128;-94
2021/12/20 04:31:33;;;;;;;13.30;3.25;;;4.50;99.90;;;;;;4970291;28;20399;-93
2021/12/20 04:33:59;;;;;;;14.25;3.30;;;4.40;99.90;;;;;;4969290;28;20049;-93
2021/12/20 04:36:24;;;;;;;15.90;3.75;;;4.50;99.90;;;;;;4972280;28;20038;-94
2021/12/20 04:38:50;;;;;;;12.02;3.88;;;4.40;99.90;;;;;;4982676;28;20118;-94
2021/12/20 04:41:15;;;;;;;15.73;3.70;;;4.40;99.90;;;;;;4974925;28;20121;-94
2021/12/20 04:43:41;;;;;;;15.82;3.40;;;4.40;99.90;;;;;;4980107;28;20050;-93
2021/12/20 04:46:07;;;;;;;13.52;3.67;;;4.30;99.90;;;;;;4990556;28;20494;-93
2021/12/20 04:48:32;;;;;;;17.40;3.35;;;4.30;99.90;;;;;;4978802;28;20484;-93
2021/12/20 04:50:58;;;;;;;13.65;2.88;;;4.30;99.90;;;;;;4970548;28;20790;-94
2021/12/20 04:53:24;;;;;;;17.85;3.42;;;4.30;99.90;;;;;;4996046;28;20038;-94
2021/12/20 04:55:49;;;;;;;14.38;3.17;;;4.30;99.90;;;;;;4977015;28;20038;-93
2021/12/20 04:58:16;;;;;;;14.02;3.28;;;4.20;99.90;;;;;;5003351;28;20105;-93
2021/12/20 05:00:43;;;;;;;13.52;3.13;;;4.20;99.90;;;;;;4984898;28;20164;-94
2021/12/20 05:03:09;;;;;;;12.70;2.95;;;4.10;99.90;;;;;;4973224;28;20073;-93
2021/12/20 05:05:35;;;;;;;14.18;3.25;;;4.10;99.90;;;;;;4976243;28;20039;-94
2021/12/20 05:08:03;;;;;;;12.30;2.65;;;4.10;99.90;;;;;;4978958;28;21442;-93
2021/12/20 05:10:32;;;;;;;11.88;3.33;;;4.10;99.90;;;;;;4975231;28;20052;-93
2021/12/20 05:13:01;;;;;;;15.88;3.63;;;4.00;99.90;;;;;;4977200;28;20039;-94
2021/12/20 05:15:27;;;;;;;16.13;3.08;;;3.90;99.90;;;;;;4987672;28;20045;-94
2021/12/20 05:17:53;;;;;;;12.48;2.83;;;3.80;99.90;;;;;;4988896;28;20038;-94
2021/12/20 05:20:18;;;;;;;14.38;2.75;;;3.80;99.90;;;;;;4978465;28;20038;-94
2021/12/20 05:22:44;;;;;;;14.45;3.33;;;3.70;99.90;;;;;;4984878;28;20048;-94
2021/12/20 05:25:11;;;;;;;16.35;3.30;;;3.70;99.90;;;;;;4986898;28;20038;-93
2021/12/20 05:27:37;;;;;;;15.20;3.03;;;3.60;99.90;;;;;;4999936;28;20048;-93
2021/12/20 05:30:05;;;;;;;13.18;2.85;;;3.50;99.90;;;;;;4967239;28;20046;-93
2021/12/20 05:32:31;;;;;;;13.73;2.60;;;3.50;99.90;;;;;;4973381;28;20093;-93
2021/12/20 05:34:57;;;;;;;15.07;2.25;;;3.40;99.90;;;;;;4984698;28;20037;-94
2021/12/20 05:37:23;;;;;;;14.40;2.30;;;3.40;99.90;;;;;;4970961;28;20501;-93
2021/12/20 05:39:48;;;;;;;10.80;2.13;;;3.20;99.90;;;;;;4972999;28;20038;-94
2021/12/20 05:42:14;;;;;;;12.13;2.25;;;3.10;99.90;;;;;;4971761;28;20470;-94
2021/12/20 05:44:39;;;;;;;11.00;1.75;;;3.00;99.90;;;;;;5008314;28;20488;-94
2021/12/20 05:47:05;;;;;;;12.10;2.25;;;3.00;99.90;;;;;;4967359;28;20046;-93
2021/12/20 05:49:31;;;;;;;12.48;2.38;;;2.90;99.90;;;;;;4965489;28;20388;-93
2021/12/20 05:51:58;;;;;;;10.98;2.13;;;2.90;99.90;;;;;;4968918;28;20049;-93
2021/12/20 05:54:24;;;;;;;8.07;1.75;;;2.80;99.90;;;;;;4992061;28;20050;-94
2021/12/20 05:56:50;;;;;;;9.07;2.05;;;2.80;99.90;;;;;;4965665;28;20037;-92
2021/12/20 05:59:15;;;;;;;8.60;1.83;;;2.70;99.90;;;;;;4985694;28;20050;-93
2021/12/20 06:01:41;;;;;;;11.77;1.80;;;2.70;99.90;;;;;;4969964;28;20050;-92
2021/12/20 06:04:06;;;;;;;10.27;2.08;;;2.70;99.90;;;;;;4967860;28;20140;-93
2021/12/20 06:06:32;;;;;;;10.55;2.15;;;2.60;99.90;;;;;;4961475;28;20476;-93
2021/12/20 06:08:58;;;;;;;10.30;1.88;;;2.60;99.90;;;;;;4967285;28;20049;-94
2021/12/20 06:11:24;;;;;;;10.30;2.03;;;2.50;99.90;;;;;;4985513;28;20171;-94
2021/12/20 06:13:51;;;;;;;10.73;2.17;;;2.50;99.90;;;;;;4966282;28;20050;-93
2021/12/20 06:16:17;;;;;;;12.43;2.35;;;2.50;99.90;;;;;;4977240;28;20053;-93
2021/12/20 06:18:43;;;;;;;11.40;2.05;;;2.40;99.90;;;;;;4974569;28;20045;-94
2021/12/20 06:21:09;;;;;;;12.77;2.40;;;2.40;99.90;;;;;;4985063;28;20045;-93
2021/12/20 06:23:34;;;;;;;10.25;2.35;;;2.40;99.90;;;;;;4966857;28;20042;-92
2021/12/20 06:26:01;;;;;;;11.57;2.53;;;2.40;99.90;;;;;;4969568;28;20097;-94
2021/12/20 06:28:27;;;;;;;14.25;3.10;;;2.40;99.90;;;;;;4967997;28;20038;-96
2021/12/20 06:30:52;;;;;;;10.57;2.13;;;2.30;99.90;;;;;;4975216;28;20375;-95
2021/12/20 06:33:18;;;;;;;10.73;2.17;;;2.30;99.90;;;;;;4974542;28;20129;-94
2021/12/20 06:35:45;;;;;;;13.57;2.42;;;2.30;99.90;;;;;;4972876;28;20475;-95
2021/12/20 06:38:18;;;;;;;12.20;2.58;;;2.20;99.90;;;;;;4967421;28;20069;-95
2021/12/20 06:40:50;;;;;;;10.38;2.42;;;2.20;99.90;;;;;;4971422;28;20395;-93
2021/12/20 06:43:17;;;;;;;15.23;2.72;;;2.20;99.90;;;;;;4969299;28;20049;-94
2021/12/20 06:45:43;;;;;;;13.88;2.72;;;2.10;99.90;;;;;;4968991;28;20506;-93
2021/12/20 06:48:08;;;;;;;15.90;3.33;;;2.10;99.90;;;;;;4970846;28;20046;-94
2021/12/20 06:50:34;;;;;;;13.48;2.67;;;2.10;99.90;;;;;;4969248;28;20038;-95
2021/12/20 06:53:00;;;;;;;17.10;2.90;;;2.10;99.90;;;;;;4967210;28;20041;-93
2021/12/20 06:55:31;;;;;;;13.20;2.50;;;2.00;99.90;;;;;;4968797;28;21296;-93
2021/12/20 06:57:57;;;;;;;;;;;2.00;99.90;;;;;;4971193;28;20046;-95
2021/12/20 07:00:23;;;;;;;12.90;2.50;;;1.90;99.90;;;;;;4969107;28;20289;-94
2021/12/20 07:02:49;;;;;;;9.52;2.05;;;1.90;99.90;;;;;;4967636;28;20057;-94
2021/12/20 07:05:16;;;;;;;14.48;2.17;;;1.80;99.90;;;;;;4965112;28;20049;-92
2021/12/20 07:07:42;;;;;;;13.10;2.28;;;1.80;99.90;;;;;;4985399;28;20045;-93
2021/12/20 07:10:16;;;;;;;12.48;2.08;;;1.70;99.90;;;;;;4968433;28;20041;-95
2021/12/20 07:12:42;;;;;;;10.68;2.03;;;1.70;99.90;;;;;;4968333;28;20108;-95
2021/12/20 07:15:13;;;;;;;12.50;2.67;;;1.70;99.90;;;;;;4967410;28;20053;-94
2021/12/20 07:17:39;;;;;;;10.90;2.20;;;1.60;99.90;;;;;;4966386;28;20380;-95
2021/12/20 07:20:06;;;;;;;12.30;2.33;;;1.70;99.90;;;;;;4990863;28;20045;-95
2021/12/20 07:22:32;;;;;;;13.45;2.00;;;1.70;99.90;;;;;;4959612;28;20030;-94
2021/12/20 07:25:02;;;;;;;9.93;2.15;;;1.60;99.90;;;;;;4978771;28;20495;-94
2021/12/20 07:27:28;;;;;;;8.70;1.88;;;1.60;99.90;;;;;;4973560;28;20037;-93
2021/12/20 07:29:53;;;;;;;10.95;2.08;;;1.60;99.90;;;;;;4966955;28;20041;-94
2021/12/20 07:32:19;;;;;;;14.30;2.75;;;1.50;99.90;;;;;;4962388;28;20034;-95
2021/12/20 07:34:44;;;;;;;11.10;2.40;;;1.50;99.90;;;;;;4966773;28;20034;-95
2021/12/20 07:37:10;;;;;;;13.32;2.20;;;1.50;99.90;;;;;;4967602;28;20072;-93
2021/12/20 07:39:38;;;;;;;9.00;1.80;;;1.50;99.90;;;;;;4969121;28;20049;-93
2021/12/20 07:42:04;;;;;;;10.05;1.80;;;1.50;99.90;;;;;;4979095;28;20058;-94
2021/12/20 07:44:30;;;;;;;7.55;2.33;;;1.40;99.90;;;;;;4972096;28;20054;-95
2021/12/20 07:46:55;;;;;;;7.60;1.70;;;1.50;99.90;;;;;;5001508;28;20045;-92
2021/12/20 07:49:21;;;;;;;8.68;2.10;;;1.50;99.90;;;;;;4970796;28;20046;-93
2021/12/20 07:51:47;;;;;;;8.30;1.50;;;1.40;99.90;;;;;;4965690;28;20448;-92
2021/12/20 07:54:13;;;;;;;9.10;1.75;;;1.30;99.90;;;;;;4967250;28;20117;-92
2021/12/20 07:56:38;;;;;;;6.15;1.30;;;1.30;99.90;;;;;;4980293;28;20069;-93
2021/12/20 07:59:04;;;;;;;8.43;1.20;;;1.30;99.90;;;;;;4985243;28;20238;-93
2021/12/20 08:01:34;;;;;;;5.93;1.10;;;1.30;99.90;;;;;;4965540;28;20051;-93
2021/12/20 08:04:00;;;;;;;2.67;1.00;;;1.30;99.90;;;;;;4968476;28;20042;-94
2021/12/20 08:06:26;;;;;;;6.22;1.30;;;1.30;99.90;;;;;;4982182;28;20038;-92
2021/12/20 08:08:52;;;;;;;8.70;1.40;;;1.30;99.90;;;;;;4966532;28;20034;-92
2021/12/20 08:11:18;;;;;;;5.88;1.35;;;1.30;99.90;;;;;;4962155;28;20067;-90
2021/12/20 08:13:46;;;;;;;7.65;1.23;;;1.30;99.90;;;;;;4986547;28;20045;-88
2021/12/20 08:16:13;;;;;;;6.50;1.45;;;1.40;99.90;;;;;;4959998;28;20046;-90
2021/12/20 08:18:44;;;;;;;5.70;1.30;;;1.20;99.90;;;;;;4981154;28;20088;-90
2021/12/20 08:21:11;;;;;;;5.10;1.48;;;1.20;99.90;;;;;;4972056;28;20041;-90
2021/12/20 08:23:37;;;;;;;7.20;1.30;;;1.20;99.90;;;;;;4969723;28;20058;-90
2021/12/20 08:26:04;;;;;;;6.82;1.35;;;1.30;99.90;;;;;;4969655;28;20708;-89
2021/12/20 08:28:30;;;;;;;8.25;1.58;;;1.20;99.90;;;;;;4978977;28;20096;-89
2021/12/20 08:30:57;;;;;;;8.77;1.48;;;1.30;99.90;;;;;;4958407;28;20057;-89
2021/12/20 08:33:23;;;;;;;7.75;1.40;;;1.30;99.90;;;;;;4962519;28;20092;-89
2021/12/20 08:35:49;;;;;;;8.70;1.40;;;1.30;99.90;;;;;;4962813;28;20057;-89
2021/12/20 08:38:19;;;;;;;6.47;1.48;;;1.30;99.90;;;;;;4969600;28;20042;-89
2021/12/20 08:40:46;;;;;;;9.88;1.45;;;1.30;99.90;;;;;;4965358;28;20049;-89
2021/12/20 08:43:12;;;;;;;10.20;2.10;;;1.30;99.90;;;;;;4967611;28;20050;-89
2021/12/20 08:45:37;;;;;;;7.63;2.08;;;1.40;99.90;;;;;;4965857;28;20053;-89
2021/12/20 08:48:03;;;;;;;6.53;1.42;;;1.40;99.90;;;;;;4974906;28;20073;-89
2021/12/20 08:50:29;;;;;;;6.72;2.20;;;1.30;99.90;;;;;;4962947;28;20490;-89
2021/12/20 08:52:55;;;;;;;11.90;2.97;;;1.40;99.90;;;;;;4981710;28;20121;-89
2021/12/20 08:55:22;;;;;;;7.95;2.35;;;1.40;99.90;;;;;;4963098;28;20046;-89
2021/12/20 08:57:48;;;;;;;11.57;3.15;;;1.40;99.90;;;;;;4981858;28;20046;-89
2021/12/20 09:00:19;;;;;;;13.75;2.30;;;1.50;99.90;;;;;;4971790;28;20054;-90
2021/12/20 09:02:45;;;;;;;7.65;2.13;;;1.50;99.90;;;;;;4969585;28;20038;-89
2021/12/20 09:05:11;;;;;;;9.60;2.35;;;1.50;99.90;;;;;;4965238;28;20120;-89
2021/12/20 09:07:39;;;;;;;8.63;1.90;;;1.50;99.90;;;;;;4961733;28;20112;-92
2021/12/20 09:10:06;;;;;;;9.75;2.80;;;1.50;99.90;;;;;;4963169;28;20443;-90
2021/12/20 09:12:31;;;;;;;11.98;2.72;;;1.50;99.90;;;;;;4978558;28;20394;-90
2021/12/20 09:14:57;;;;;;;14.35;3.33;;;1.60;99.90;;;;;;4961555;28;20066;-89
2021/12/20 09:17:22;;;;;;;15.82;3.40;;;1.60;99.90;;;;;;4967060;28;20042;-89
2021/12/20 09:19:48;;;;;;;11.45;2.70;;;1.60;99.90;;;;;;4964742;28;20044;-90
2021/12/20 09:22:14;;;;;;;12.00;3.17;;;1.70;99.90;;;;;;4983623;28;20494;-90
2021/12/20 09:24:40;;;;;;;11.95;3.58;;;1.70;99.90;;;;;;4971659;28;20034;-90
2021/12/20 09:27:08;;;;;;;13.43;3.53;;;1.80;99.90;;;;;;4963294;28;20046;-91
2021/12/20 09:29:34;;;;;;;16.35;3.88;;;1.80;99.90;;;;;;4961637;28;20053;-90
2021/12/20 09:32:00;;;;;;;15.50;3.90;;;1.90;99.90;;;;;;4966915;28;20088;-90
2021/12/20 09:34:25;;;;;;;13.38;3.58;;;2.00;99.90;;;;;;4979534;28;20395;-89
2021/12/20 09:36:54;;;;;;;14.82;4.22;;;2.00;99.90;;;;;;4963996;28;20043;-89
2021/12/20 09:39:21;;;;;;;16.92;4.38;;;2.10;99.90;;;;;;4984019;28;20042;-90
2021/12/20 09:44:13;;;;;;;14.75;4.25;;;2.20;99.90;;;;;;4985655;28;20058;-89
2021/12/20 09:46:39;;;;;;;16.50;4.13;;;2.30;99.90;;;;;;4965059;28;20050;-89
2021/12/20 09:49:07;;;;;;;20.00;3.95;;;2.30;99.90;;;;;;4986112;28;20166;-89
2021/12/20 09:51:32;;;;;;;14.98;3.63;;;2.40;99.90;;;;;;4973170;28;20042;-90
2021/12/20 09:53:58;;;;;;;18.40;5.75;;;2.40;99.90;;;;;;4986673;28;20042;-91
2021/12/20 09:56:26;;;;;;;20.60;4.28;;;2.50;99.90;;;;;;4969846;28;20406;-92
2021/12/20 09:58:54;;;;;;;22.95;5.78;;;2.60;99.90;;;;;;4982335;28;20052;-91
2021/12/20 10:01:21;;;;;;;16.33;4.40;;;2.70;99.90;;;;;;4986252;28;20054;-91
2021/12/20 10:03:47;;;;;;;23.27;4.88;;;2.70;99.90;;;;;;4989461;28;20046;-91
2021/12/20 10:06:14;;;;;;;23.50;5.97;;;2.80;99.90;;;;;;4967545;28;20141;-91
2021/12/20 10:08:49;;;;;;;20.40;4.97;;;2.80;99.90;;;;;;4966637;28;20108;-91
2021/12/20 10:11:25;;;;;;;24.10;5.45;;;2.90;99.90;;;;;;4985240;28;20042;-91
2021/12/20 10:14:03;;;;;;;24.20;5.50;;;3.00;99.90;;;;;;4995175;28;20046;-91
2021/12/20 10:16:28;;;;;;;24.08;5.22;;;3.00;99.90;;;;;;4966455;28;20042;-92
2021/12/20 10:18:54;;;;;;;21.52;5.80;;;3.10;99.90;;;;;;4973070;28;20073;-92
2021/12/20 10:21:19;;;;;;;21.52;6.78;;;3.10;99.90;;;;;;4968905;28;20112;-91
2021/12/20 10:23:49;;;;;;;20.08;6.05;;;3.10;99.90;;;;;;4980501;28;20037;-91
2021/12/20 10:26:20;;;;;;;19.52;4.90;;;3.20;99.90;;;;;;4969419;28;20069;-92
2021/12/20 10:28:48;;;;;;;14.00;5.10;;;3.20;99.90;;;;;;4982890;28;20034;-92
2021/12/20 10:31:17;;;;;;;24.63;4.93;;;3.30;99.90;;;;;;4965124;28;20093;-92
2021/12/20 10:33:52;;;;;;;17.00;4.53;;;3.40;99.90;;;;;;4965132;28;20068;-91
2021/12/20 10:36:17;;;;;;;17.63;4.53;;;3.40;99.90;;;;;;4968637;28;20064;-92
2021/12/20 10:38:45;;;;;;;16.42;3.70;;;3.50;99.90;;;;;;4985024;28;20121;-92
2021/12/20 10:41:16;;;;;;;19.92;4.25;;;3.50;99.90;;;;;;4968460;28;20088;-92
2021/12/20 10:43:50;;;;;;;19.98;4.55;;;3.60;99.90;;;;;;4971911;28;20061;-91
2021/12/20 10:46:33;;;;;;;13.98;4.15;;;3.60;99.90;;;;;;4970649;28;20057;-93
2021/12/20 10:49:03;;;;;;;17.63;3.85;;;3.70;99.90;;;;;;4974954;28;20073;-92
2021/12/20 10:51:36;;;;;;;15.07;3.83;;;3.70;99.90;;;;;;4967625;28;20038;-92
2021/12/20 10:54:08;;;;;;;18.63;4.45;;;3.80;99.90;;;;;;4966581;28;20117;-91
2021/12/20 10:56:38;;;;;;;14.43;3.65;;;3.80;99.90;;;;;;4967872;28;20061;-91
2021/12/20 10:59:10;;;;;;;16.52;3.97;;;3.90;99.90;;;;;;4971111;28;20075;-93
2021/12/20 11:04:25;;;;;;;14.23;3.13;;;3.90;99.90;;;;;;4982958;28;20392;-91
2021/12/20 11:07:02;;;;;;;15.20;3.70;;;4.00;99.90;;;;;;4966695;28;20038;-90
2021/12/20 11:09:32;;;;;;;15.32;3.53;;;4.00;99.90;;;;;;4966871;28;20484;-91
2021/12/20 11:12:07;;;;;;;12.60;3.10;;;4.10;99.90;;;;;;4979874;28;20073;-92
2021/12/20 11:14:36;;;;;;;13.02;2.65;;;4.10;99.90;;;;;;4966120;28;20046;-91
2021/12/20 11:17:04;;;;;;;17.40;4.53;;;4.20;99.90;;;;;;4974206;28;20046;-92
2021/12/20 11:19:44;;;;;;;16.27;3.63;;;4.20;99.90;;;;;;4970307;28;20041;-91
2021/12/20 11:22:22;;;;;;;12.82;2.65;;;4.30;99.90;;;;;;4967929;28;20053;-91
2021/12/20 11:24:51;;;;;;;11.73;2.88;;;4.30;99.90;;;;;;4970834;28;20089;-89
2021/12/20 11:27:22;;;;;;;14.48;4.20;;;4.40;99.90;;;;;;4976404;28;20046;-90
2021/12/20 11:29:51;;;;;;;10.32;2.78;;;4.40;99.90;;;;;;4968520;28;20490;-90
2021/12/20 11:32:18;;;;;;;12.10;2.50;;;4.40;99.90;;;;;;4987828;28;20074;-92
2021/12/20 11:34:44;;;;;;;14.75;3.08;;;4.50;99.90;;;;;;4987091;28;20048;-92
2021/12/20 11:37:13;;;;;;;10.85;2.30;;;4.60;99.90;;;;;;4965603;28;20042;-91
2021/12/20 11:39:39;;;;;;;12.80;3.63;;;4.60;99.90;;;;;;4969321;28;20115;-92
2021/12/20 11:42:07;;;;;;;11.55;2.97;;;4.70;99.90;;;;;;4981618;28;20443;-92
2021/12/20 11:44:34;;;;;;;8.75;2.25;;;4.70;99.90;;;;;;4964159;28;20035;-91
2021/12/20 11:47:15;;;;;;;12.52;2.47;;;4.70;99.90;;;;;;4964765;28;20042;-92
2021/12/20 11:49:41;;;;;;;11.90;2.60;;;4.80;99.90;;;;;;4965074;28;20511;-92
2021/12/20 11:52:18;;;;;;;12.50;2.60;;;4.80;99.90;;;;;;4961133;28;20082;-93
2021/12/20 11:54:54;;;;;;;10.82;2.20;;;4.80;99.90;;;;;;4971637;28;20054;-92
2021/12/20 11:57:38;;;;;;;9.65;2.47;;;4.90;99.90;;;;;;4967320;28;20503;-91
2021/12/20 12:00:18;;;;;;;11.10;2.53;;;4.90;99.90;;;;;;4986725;28;20112;-90
2021/12/20 12:02:45;;;;;;;10.25;2.63;;;4.90;99.90;;;;;;4962624;28;20479;-91
2021/12/20 12:05:15;;;;;;;9.43;1.92;;;5.00;99.90;;;;;;4964788;28;20050;-92
2021/12/20 12:07:41;;;;;;;9.52;2.47;;;5.00;99.90;;;;;;4978911;28;20073;-90
2021/12/20 12:10:17;;;;;;;12.48;3.00;;;5.00;99.90;;;;;;4972654;28;20061;-91
2021/12/20 12:12:45;;;;;;;10.35;2.15;;;5.00;99.90;;;;;;4981726;28;20149;-91
2021/12/20 12:15:28;;;;;;;10.10;2.83;;;5.20;99.90;;;;;;4970302;28;20134;-91
2021/12/20 12:17:57;;;;;;;11.65;2.53;;;5.10;99.90;;;;;;4977094;28;20042;-90
2021/12/20 12:20:37;;;;;;;7.40;2.35;;;5.10;99.90;;;;;;4967119;28;20046;-90
2021/12/20 12:23:17;;;;;;;9.43;2.38;;;5.10;99.90;;;;;;4965809;28;20133;-90
2021/12/20 12:25:58;;;;;;;10.60;2.92;;;5.10;99.90;;;;;;4981441;28;20048;-90
2021/12/20 12:28:48;;;;;;;9.70;2.17;;;5.20;99.90;;;;;;4973661;28;20040;-90
2021/12/20 12:31:14;;;;;;;8.90;2.33;;;5.20;99.90;;;;;;4975477;28;20108;-91
2021/12/20 12:33:41;;;;;;;8.80;2.17;;;5.20;99.90;;;;;;4968943;28;20046;-90
2021/12/20 12:36:29;;;;;;;9.50;2.40;;;5.30;99.90;;;;;;4988059;28;20073;-91
2021/12/20 12:38:59;;;;;;;6.88;2.05;;;5.30;99.90;;;;;;4971538;28;20038;-90
2021/12/20 12:41:31;;;;;;;8.02;1.70;;;5.30;99.90;;;;;;4978880;28;20048;-90
2021/12/20 12:44:07;;;;;;;8.93;1.80;;;5.30;99.90;;;;;;4965619;28;20503;-90
2021/12/20 12:46:35;;;;;;;9.75;1.90;;;5.30;99.90;;;;;;4958372;28;20146;-90
2021/12/20 12:49:21;;;;;;;7.68;2.00;;;5.40;99.90;;;;;;4973272;28;20041;-89
2021/12/20 12:51:49;;;;;;;8.38;2.13;;;5.40;99.90;;;;;;4988158;28;20046;-90
2021/12/20 12:54:33;;;;;;;10.23;1.95;;;5.40;99.90;;;;;;4964846;28;20038;-90
2021/12/20 12:57:10;;;;;;;9.85;2.20;;;5.40;99.90;;;;;;4975181;28;20053;-90
2021/12/20 12:59:58;;;;;;;7.50;1.83;;;5.40;99.90;;;;;;4962427;28;20041;-90
2021/12/20 13:02:25;;;;;;;11.75;2.13;;;5.50;99.90;;;;;;4984038;28;20043;-89
2021/12/20 13:05:13;;;;;;;9.23;1.85;;;5.50;99.90;;;;;;4972063;28;20057;-89
2021/12/20 13:07:54;;;;;;;7.65;1.90;;;5.50;99.90;;;;;;4973243;28;20061;-89
2021/12/20 13:10:33;;;;;;;8.15;1.30;;;5.50;99.90;;;;;;4974063;28;20399;-89
2021/12/20 13:13:20;;;;;;;6.43;1.45;;;5.50;99.90;;;;;;4959603;28;20050;-89
2021/12/20 13:15:52;;;;;;;6.28;1.25;;;5.50;99.90;;;;;;4963674;28;20130;-89